createdAt,value
2018-08-22T04:44:18.519Z,20.48
2018-08-22T04:46:47.435Z,16.97
2018-08-22T04:49:16.197Z,17.97
2018-08-22T04:51:45.056Z,16.90
2018-08-22T04:54:14.070Z,18.23
2018-08-22T04:56:43.043Z,17.87
2018-08-22T04:59:11.828Z,16.73
2018-08-22T05:02:08.823Z,16.53
2018-08-22T05:04:52.666Z,15.33
2018-08-22T05:07:21.472Z,15.20
2018-08-22T05:09:50.311Z,15.50
2018-08-22T05:12:19.257Z,14.90
2018-08-22T05:14:48.447Z,15.50
2018-08-22T05:17:17.237Z,14.70
2018-08-22T05:19:46.042Z,15.90
2018-08-22T05:22:14.865Z,14.43
2018-08-22T05:24:43.827Z,14.33
2018-08-22T05:27:12.517Z,15.27
2018-08-22T05:29:41.315Z,17.10
2018-08-22T05:32:09.971Z,16.07
2018-08-22T05:34:38.672Z,17.07
2018-08-22T05:37:07.581Z,18.23
2018-08-22T05:39:36.484Z,18.27
2018-08-22T05:42:05.443Z,20.10
2018-08-22T05:44:34.336Z,18.67
2018-08-22T05:47:03.181Z,17.03
2018-08-22T05:49:32.035Z,18.60
2018-08-22T05:52:00.939Z,17.70
2018-08-22T05:54:29.592Z,17.37
2018-08-22T05:56:58.472Z,15.27
2018-08-22T05:59:27.401Z,17.47
2018-08-22T06:01:56.355Z,17.30
2018-08-22T06:04:25.206Z,16.30
2018-08-22T06:06:54.266Z,15.97
2018-08-22T06:09:23.226Z,17.33
2018-08-22T06:11:52.059Z,16.87
2018-08-22T06:14:20.843Z,18.33
2018-08-22T06:16:49.682Z,16.40
2018-08-22T06:19:18.561Z,15.63
2018-08-22T06:21:47.411Z,15.50
2018-08-22T06:24:16.292Z,15.30
2018-08-22T06:26:45.206Z,14.07
2018-08-22T06:29:13.885Z,12.83
2018-08-22T06:31:42.960Z,13.50
2018-08-22T06:34:11.806Z,12.07
2018-08-22T06:36:40.668Z,12.03
2018-08-22T06:39:10.473Z,12.70
2018-08-22T06:41:39.500Z,12.80
2018-08-22T06:44:08.415Z,13.43
2018-08-22T06:46:37.138Z,13.10
2018-08-22T06:49:06.043Z,11.87
2018-08-22T06:51:34.927Z,11.30
2018-08-22T06:54:03.853Z,14.37
2018-08-22T06:56:32.534Z,11.80
2018-08-22T06:59:01.394Z,14.20
2018-08-22T07:01:30.217Z,11.63
2018-08-22T07:03:59.106Z,11.93
2018-08-22T07:06:27.952Z,10.93
2018-08-22T07:08:57.156Z,10.80
2018-08-22T07:11:26.357Z,10.07
2018-08-22T07:13:55.190Z,9.63
2018-08-22T07:16:24.088Z,9.57
2018-08-22T07:18:53.057Z,8.63
2018-08-22T07:21:21.963Z,9.40
2018-08-22T07:23:50.749Z,10.53
2018-08-22T07:26:19.693Z,9.23
2018-08-22T07:28:48.384Z,8.90
2018-08-22T07:31:17.237Z,9.43
2018-08-22T07:33:46.067Z,10.03
2018-08-22T07:36:15.088Z,9.33
2018-08-22T07:38:43.876Z,9.00
2018-08-22T07:41:12.741Z,8.53
2018-08-22T07:43:41.660Z,8.50
2018-08-22T07:46:10.555Z,7.77
2018-08-22T07:48:39.411Z,8.23
2018-08-22T07:51:08.462Z,8.67
2018-08-22T07:53:37.235Z,7.23
2018-08-22T07:56:06.226Z,8.07
2018-08-22T07:58:35.102Z,8.53
2018-08-22T08:01:03.980Z,8.10
2018-08-22T08:03:32.877Z,7.77
2018-08-22T08:06:01.829Z,8.00
2018-08-22T08:08:30.550Z,6.90
2018-08-22T08:11:00.013Z,7.37
2018-08-22T08:13:29.702Z,8.43
2018-08-22T08:15:59.170Z,7.13
2018-08-22T08:18:28.284Z,6.50
2018-08-22T08:20:57.137Z,7.27
2018-08-22T08:23:25.906Z,7.20
2018-08-22T08:25:54.813Z,7.47
2018-08-22T08:28:23.892Z,7.43
2018-08-22T08:30:52.802Z,6.60
2018-08-22T08:33:21.621Z,7.50
2018-08-22T08:35:50.771Z,7.13
2018-08-22T08:38:19.592Z,7.23
2018-08-22T08:40:48.362Z,8.53
2018-08-22T08:43:16.834Z,8.20
2018-08-22T08:45:45.522Z,6.87
2018-08-22T08:48:14.154Z,6.60
2018-08-22T08:50:42.573Z,7.20
2018-08-22T08:53:11.048Z,6.87
2018-08-22T08:55:39.910Z,7.87
2018-08-22T08:58:08.649Z,7.53
2018-08-22T09:00:37.321Z,7.50
2018-08-22T09:03:06.235Z,6.90
2018-08-22T09:05:35.126Z,7.00
2018-08-22T09:08:03.950Z,7.23
2018-08-22T09:10:32.816Z,7.07
2018-08-22T09:13:01.564Z,8.07
2018-08-22T09:15:30.556Z,7.43
2018-08-22T09:17:59.348Z,7.83
2018-08-22T09:20:28.276Z,7.70
2018-08-22T09:22:57.161Z,6.80
2018-08-22T09:25:25.978Z,6.60
2018-08-22T09:27:54.679Z,6.80
2018-08-22T09:30:23.622Z,6.70
2018-08-22T09:32:52.491Z,7.97
2018-08-22T09:35:21.291Z,7.00
2018-08-22T09:37:50.190Z,6.97
2018-08-22T09:40:19.164Z,8.30
2018-08-22T09:42:47.910Z,7.40
2018-08-22T09:45:16.766Z,6.87
2018-08-22T09:47:45.551Z,7.33
2018-08-22T09:50:14.645Z,6.40
2018-08-22T09:52:43.821Z,6.77
2018-08-22T09:55:12.615Z,6.40
2018-08-22T09:57:41.361Z,6.33
2018-08-22T10:00:15.683Z,5.80
2018-08-22T10:02:44.569Z,6.27
2018-08-22T10:05:13.463Z,6.50
2018-08-22T10:07:42.314Z,5.30
2018-08-22T10:10:11.292Z,6.53
2018-08-22T10:12:40.036Z,6.23
2018-08-22T10:15:09.125Z,6.43
2018-08-22T10:17:37.998Z,6.27
2018-08-22T10:20:06.998Z,5.50
2018-08-22T10:22:35.789Z,5.57
2018-08-22T10:25:04.842Z,6.00
2018-08-22T10:27:33.661Z,5.97
2018-08-22T10:30:02.417Z,6.30
2018-08-22T10:32:31.537Z,7.40
2018-08-22T10:35:00.398Z,6.60
2018-08-22T10:37:29.087Z,5.70
2018-08-22T10:39:57.956Z,6.90
2018-08-22T10:42:26.773Z,6.03
2018-08-22T10:44:55.243Z,6.23
2018-08-22T10:47:23.737Z,6.00
2018-08-22T10:49:52.665Z,5.90
2018-08-22T10:52:21.623Z,5.93
2018-08-22T10:54:50.431Z,5.63
2018-08-22T10:57:19.218Z,6.00
2018-08-22T10:59:47.980Z,6.03
2018-08-22T11:02:16.764Z,6.60
2018-08-22T11:04:45.778Z,7.00
2018-08-22T11:07:14.561Z,7.17
2018-08-22T11:09:43.367Z,6.50
2018-08-22T11:12:12.247Z,6.30
2018-08-22T11:14:40.956Z,6.70
2018-08-22T11:17:09.957Z,6.33
2018-08-22T11:19:38.692Z,6.03
2018-08-22T11:22:18.450Z,7.03
2018-08-22T11:24:58.276Z,5.97
2018-08-22T11:27:37.544Z,6.53
2018-08-22T11:30:17.354Z,6.40
2018-08-22T11:32:57.201Z,6.97
2018-08-22T11:35:24.455Z,7.37
2018-08-22T11:37:53.165Z,7.10
2018-08-22T11:40:22.027Z,7.90
2018-08-22T11:42:50.757Z,7.10
2018-08-22T11:45:19.607Z,7.63
2018-08-22T11:47:48.329Z,7.70
2018-08-22T11:50:17.287Z,8.07
2018-08-22T11:52:46.087Z,7.97
2018-08-22T11:55:15.168Z,8.67
2018-08-22T11:57:43.999Z,9.30
2018-08-22T12:00:12.724Z,8.30
2018-08-22T12:02:41.538Z,9.00
2018-08-22T12:05:10.244Z,8.70
2018-08-22T12:07:39.300Z,9.43
2018-08-22T12:10:08.019Z,10.03
2018-08-22T12:12:36.883Z,9.87
2018-08-22T12:15:05.705Z,9.17
2018-08-22T12:17:34.366Z,9.03
2018-08-22T12:20:03.324Z,9.27
2018-08-22T12:22:32.258Z,9.83
2018-08-22T12:25:01.034Z,10.10
2018-08-22T12:27:29.777Z,10.13
2018-08-22T12:29:58.520Z,9.13
2018-08-22T12:32:27.299Z,11.47
2018-08-22T12:34:55.993Z,10.13
2018-08-22T12:38:04.185Z,11.60
2018-08-22T12:40:33.089Z,10.17
2018-08-22T12:43:01.912Z,10.67
2018-08-22T12:45:30.783Z,11.53
2018-08-22T12:47:59.451Z,9.93
2018-08-22T12:50:28.458Z,10.27
2018-08-22T12:52:57.189Z,10.33
2018-08-22T12:55:26.220Z,10.10
2018-08-22T12:57:55.012Z,9.97
2018-08-22T13:00:23.811Z,9.47
2018-08-22T13:02:52.613Z,10.10
2018-08-22T13:05:21.309Z,10.97
2018-08-22T13:07:50.256Z,10.07
2018-08-22T13:10:19.027Z,10.33
2018-08-22T13:12:47.998Z,6.77
2018-08-22T13:15:16.926Z,5.33
2018-08-22T13:17:45.937Z,5.90
2018-08-22T13:20:14.542Z,8.40
2018-08-22T13:22:43.416Z,5.40
2018-08-22T13:25:12.101Z,5.77
2018-08-22T13:27:40.866Z,5.43
2018-08-22T13:30:09.746Z,5.93
2018-08-22T13:32:38.655Z,5.70
2018-08-22T13:35:07.733Z,5.10
2018-08-22T13:37:36.632Z,5.90
2018-08-22T13:40:05.718Z,5.83
2018-08-22T13:42:34.364Z,5.73
2018-08-22T13:45:03.299Z,5.97
2018-08-22T13:47:32.048Z,6.30
2018-08-22T13:50:00.886Z,5.90
2018-08-22T13:52:29.552Z,5.27
2018-08-22T13:54:58.458Z,5.13
2018-08-22T13:57:27.344Z,6.17
2018-08-22T13:59:56.124Z,5.70
2018-08-22T14:02:25.163Z,5.43
2018-08-22T14:04:53.925Z,5.87
2018-08-22T14:07:22.663Z,6.20
2018-08-22T14:09:51.521Z,6.10
2018-08-22T14:12:20.242Z,6.30
2018-08-22T14:14:49.062Z,6.10
2018-08-22T14:17:18.056Z,5.97
2018-08-22T14:19:46.978Z,6.00
2018-08-22T14:22:15.766Z,5.30
2018-08-22T14:24:44.468Z,5.60
2018-08-22T14:27:13.059Z,6.63
2018-08-22T14:29:41.806Z,9.30
2018-08-22T14:32:10.548Z,5.07
2018-08-22T14:34:39.469Z,5.90
2018-08-22T14:37:08.377Z,6.20
2018-08-22T14:39:37.355Z,5.90
2018-08-22T14:42:06.233Z,6.83
2018-08-22T14:44:34.783Z,6.07
2018-08-22T14:47:03.679Z,5.73
2018-08-22T14:49:32.472Z,9.93
2018-08-22T14:52:01.491Z,6.42
2018-08-22T14:54:30.320Z,6.90
2018-08-22T14:56:59.034Z,7.07
2018-08-22T14:59:28.224Z,6.83
2018-08-22T15:01:57.053Z,6.97
2018-08-22T15:04:25.860Z,6.80
2018-08-22T15:06:54.552Z,6.70
2018-08-22T15:09:23.364Z,7.37
2018-08-22T15:11:52.096Z,9.50
2018-08-22T15:14:21.098Z,9.53
2018-08-22T15:16:50.176Z,11.47
2018-08-22T15:19:19.077Z,9.90
2018-08-22T15:21:47.814Z,10.20
2018-08-22T15:24:16.670Z,9.70
2018-08-22T15:26:45.355Z,10.10
2018-08-22T15:29:13.776Z,9.47
2018-08-22T15:31:42.231Z,9.80
2018-08-22T15:34:10.996Z,9.77
2018-08-22T15:36:39.787Z,10.03
2018-08-22T15:39:10.302Z,10.43
2018-08-22T15:41:39.120Z,9.57
2018-08-22T15:44:08.010Z,9.60
2018-08-22T15:46:36.769Z,10.13
2018-08-22T15:49:05.676Z,11.00
2018-08-22T15:51:34.717Z,10.87
2018-08-22T15:54:13.346Z,11.13
2018-08-22T15:56:42.648Z,10.30
2018-08-22T15:59:12.194Z,10.60
2018-08-22T16:01:41.067Z,11.97
2018-08-22T16:04:10.433Z,11.30
2018-08-22T16:06:39.346Z,10.97
2018-08-22T16:09:13.474Z,10.60
2018-08-22T16:11:42.460Z,10.90
2018-08-22T16:14:11.261Z,10.70
2018-08-22T16:16:40.038Z,11.80
2018-08-22T16:19:08.930Z,11.17
2018-08-22T16:21:37.918Z,11.97
2018-08-22T16:24:06.848Z,11.47
2018-08-22T16:26:35.754Z,12.10
2018-08-22T16:29:04.430Z,12.10
2018-08-22T16:31:45.057Z,12.00
2018-08-22T16:34:14.484Z,11.97
2018-08-22T16:36:43.246Z,13.77
2018-08-22T16:39:12.258Z,13.63
2018-08-22T16:41:41.025Z,13.20
2018-08-22T16:44:09.757Z,13.03
2018-08-22T16:46:38.603Z,13.10
2018-08-22T16:49:07.399Z,13.30
2018-08-22T16:51:36.181Z,13.97
2018-08-22T16:54:09.688Z,13.40
2018-08-22T16:56:38.604Z,13.80
2018-08-22T16:59:12.295Z,14.07
2018-08-22T17:01:47.691Z,15.23
2018-08-22T17:04:16.490Z,14.53
2018-08-22T17:06:45.710Z,14.30
2018-08-22T17:09:14.689Z,15.57
2018-08-22T17:11:43.508Z,15.30
2018-08-22T17:14:12.258Z,15.37
2018-08-22T17:16:40.763Z,15.20
2018-08-22T17:19:09.634Z,15.43
2018-08-22T17:21:38.366Z,16.37
2018-08-22T17:24:07.316Z,15.43
2018-08-22T17:26:36.188Z,14.97
2018-08-22T17:29:04.987Z,15.03
2018-08-22T17:31:33.882Z,14.73
2018-08-22T17:34:03.098Z,15.80
2018-08-22T17:36:31.868Z,16.50
2018-08-22T17:39:01.570Z,16.30
2018-08-22T17:41:30.670Z,17.20
2018-08-22T17:44:03.004Z,16.20
2018-08-22T17:46:34.051Z,16.47
2018-08-22T17:49:02.882Z,16.33
2018-08-22T17:51:33.790Z,16.27
2018-08-22T17:54:02.731Z,16.50
2018-08-22T17:56:31.618Z,16.03
2018-08-22T17:59:00.310Z,17.87
2018-08-22T18:01:29.042Z,16.80
2018-08-22T18:03:57.992Z,16.40
2018-08-22T18:06:26.909Z,16.97
2018-08-22T18:08:55.843Z,17.20
2018-08-22T18:11:25.971Z,18.10
2018-08-22T18:13:57.675Z,17.20
2018-08-22T18:16:26.638Z,17.70
2018-08-22T18:18:55.323Z,17.23
2018-08-22T18:21:28.381Z,18.63
2018-08-22T18:23:57.610Z,17.63
2018-08-22T18:26:26.677Z,16.77
2018-08-22T18:28:55.442Z,20.03
2018-08-22T18:31:24.380Z,17.77
2018-08-22T18:33:59.941Z,18.93
2018-08-22T18:36:29.717Z,18.00
2018-08-22T18:39:07.528Z,19.40
2018-08-22T18:41:36.915Z,19.20
2018-08-22T18:44:05.739Z,19.23
2018-08-22T18:46:35.609Z,20.23
2018-08-22T18:49:05.063Z,18.50
2018-08-22T18:51:34.439Z,19.90
2018-08-22T18:54:03.809Z,19.27
2018-08-22T18:56:32.583Z,19.87
2018-08-22T18:59:12.449Z,19.53
2018-08-22T19:01:41.325Z,20.63
2018-08-22T19:04:10.023Z,19.43
2018-08-22T19:06:38.937Z,20.33
2018-08-22T19:09:07.576Z,21.30
2018-08-22T19:11:36.596Z,21.77
2018-08-22T19:14:05.391Z,21.47
2018-08-22T19:16:34.271Z,22.27
2018-08-22T19:19:03.060Z,21.10
2018-08-22T19:21:31.952Z,20.00
2018-08-22T19:24:06.334Z,20.47
2018-08-22T19:26:35.194Z,20.57
2018-08-22T19:29:05.992Z,20.67
2018-08-22T19:31:36.543Z,20.23
2018-08-22T19:34:05.412Z,21.00
2018-08-22T19:36:34.095Z,20.40
2018-08-22T19:39:02.947Z,20.70
2018-08-22T19:41:32.692Z,21.00
2018-08-22T19:44:01.475Z,21.33
2018-08-22T19:46:30.374Z,23.63
2018-08-22T19:49:00.150Z,22.17
2018-08-22T19:51:29.284Z,22.83
2018-08-22T19:54:05.795Z,22.90
2018-08-22T19:56:34.550Z,24.20
2018-08-22T19:59:04.169Z,23.23
2018-08-22T20:01:35.314Z,23.40
2018-08-22T20:04:04.032Z,23.45
2018-08-22T20:06:32.865Z,23.90
2018-08-22T20:09:01.869Z,26.33
2018-08-22T20:11:32.392Z,23.63
2018-08-22T20:14:02.550Z,23.80
2018-08-22T20:16:31.237Z,22.97
2018-08-22T20:19:01.999Z,23.13
2018-08-22T20:21:34.024Z,23.97
2018-08-22T20:24:03.905Z,24.67
2018-08-22T20:26:33.038Z,25.53
2018-08-22T20:29:02.722Z,24.43
2018-08-22T20:31:32.218Z,23.47
2018-08-22T20:34:05.762Z,23.57
2018-08-22T20:36:35.323Z,22.53
2018-08-22T20:39:06.373Z,22.60
2018-08-22T20:41:35.287Z,22.57
2018-08-22T20:44:09.162Z,25.07
2018-08-22T20:46:38.355Z,24.13
2018-08-22T20:49:06.951Z,24.03
2018-08-22T20:51:35.605Z,29.37
2018-08-22T20:54:12.281Z,31.60
2018-08-22T20:56:48.249Z,32.87
2018-08-22T20:59:18.370Z,45.17
2018-08-22T21:01:52.591Z,32.43
2018-08-22T21:04:21.370Z,27.70
2018-08-22T21:06:50.277Z,29.90
2018-08-22T21:09:18.725Z,25.83
2018-08-22T21:11:47.623Z,23.97
2018-08-22T21:14:16.443Z,23.63
2018-08-22T21:16:45.507Z,23.67
2018-08-22T21:19:14.227Z,22.13
2018-08-22T21:21:43.099Z,22.57
2018-08-22T21:24:11.922Z,24.43
2018-08-22T21:26:42.101Z,22.33
2018-08-22T21:29:10.903Z,21.90
2018-08-22T21:31:39.599Z,22.37
2018-08-22T21:34:14.092Z,23.13
2018-08-22T21:36:44.443Z,22.30
2018-08-22T21:39:18.571Z,22.50
2018-08-22T21:41:47.707Z,21.80
2018-08-22T21:44:17.738Z,22.93
2018-08-22T21:46:50.114Z,22.67
2018-08-22T21:49:18.917Z,23.47
2018-08-22T21:51:47.893Z,22.37
2018-08-22T21:54:16.590Z,21.47
2018-08-22T21:56:46.176Z,20.63
2018-08-22T21:59:15.129Z,20.50
2018-08-22T22:01:49.008Z,20.20
2018-08-22T22:04:22.698Z,20.53
2018-08-22T22:06:51.593Z,20.20
2018-08-22T22:09:20.318Z,21.30
2018-08-22T22:11:48.882Z,20.57
2018-08-22T22:14:25.728Z,20.90
2018-08-22T22:16:58.341Z,19.13
2018-08-22T22:19:29.003Z,21.03
2018-08-22T22:21:58.024Z,19.63
2018-08-22T22:24:26.808Z,21.00
2018-08-22T22:26:55.199Z,21.03
2018-08-22T22:29:26.798Z,20.67
2018-08-22T22:31:55.568Z,19.93
2018-08-22T22:34:24.190Z,19.73
2018-08-22T22:36:53.042Z,21.40
2018-08-22T22:39:34.790Z,20.17
2018-08-22T22:42:16.490Z,18.37
2018-08-22T22:44:47.212Z,19.73
2018-08-22T22:47:21.543Z,19.87
2018-08-22T22:49:51.089Z,20.43
2018-08-22T22:52:33.382Z,19.57
2018-08-22T22:55:03.231Z,21.00
2018-08-22T22:57:33.208Z,21.80
2018-08-22T23:00:02.601Z,20.90
2018-08-22T23:02:31.878Z,20.23
2018-08-22T23:05:01.183Z,20.87
2018-08-22T23:07:32.862Z,19.33
2018-08-22T23:10:09.510Z,22.30
2018-08-22T23:12:39.150Z,20.23
2018-08-22T23:15:12.233Z,21.00
2018-08-22T23:17:41.369Z,20.00
2018-08-22T23:20:27.426Z,20.17
2018-08-22T23:22:56.418Z,20.40
2018-08-22T23:25:25.383Z,21.03
2018-08-22T23:27:53.823Z,19.90
2018-08-22T23:30:28.178Z,21.03
2018-08-22T23:32:56.919Z,20.37
2018-08-22T23:35:27.284Z,20.43
2018-08-22T23:37:57.863Z,20.37
2018-08-22T23:40:27.549Z,21.23
2018-08-22T23:42:56.225Z,21.30
2018-08-22T23:45:24.691Z,20.30
2018-08-22T23:47:53.369Z,22.37
2018-08-22T23:50:22.183Z,20.83
2018-08-22T23:52:55.863Z,21.23
2018-08-22T23:55:25.540Z,21.00
2018-08-22T23:57:56.207Z,22.03
